createdAt,value
2022-08-30T00:00:02.238Z,8.52
2022-08-30T00:02:32.169Z,8.25
2022-08-30T00:05:01.750Z,8.02
2022-08-30T00:07:29.163Z,7.65
2022-08-30T00:09:56.421Z,7.25
2022-08-30T00:12:23.681Z,7.68
2022-08-30T00:14:50.994Z,7.90
2022-08-30T00:17:19.458Z,7.03
2022-08-30T00:19:47.000Z,7.78
2022-08-30T00:22:14.419Z,7.32
2022-08-30T00:24:41.871Z,7.60
2022-08-30T00:27:09.152Z,7.63
2022-08-30T00:29:36.795Z,8.25
2022-08-30T00:32:04.325Z,7.50
2022-08-30T00:34:32.402Z,7.65
2022-08-30T00:37:00.374Z,7.57
2022-08-30T00:39:27.749Z,7.82
2022-08-30T00:41:55.112Z,7.68
2022-08-30T00:44:22.411Z,7.30
2022-08-30T00:46:49.648Z,7.28
2022-08-30T00:49:17.160Z,7.38
2022-08-30T00:51:45.056Z,7.43
2022-08-30T00:54:12.842Z,7.47
2022-08-30T00:56:40.513Z,6.93
2022-08-30T00:59:08.665Z,8.18
2022-08-30T01:01:37.759Z,7.63
2022-08-30T01:04:08.828Z,8.95
2022-08-30T01:06:37.595Z,9.15
2022-08-30T01:09:06.060Z,7.78
2022-08-30T01:11:37.565Z,8.05
2022-08-30T01:14:06.802Z,7.53
2022-08-30T01:16:35.487Z,7.75
2022-08-30T01:19:03.063Z,7.78
2022-08-30T01:21:46.444Z,7.50
2022-08-30T01:26:41.586Z,7.53
2022-08-30T01:29:13.440Z,7.03
2022-08-30T01:31:40.886Z,7.50
2022-08-30T01:34:08.869Z,7.68
2022-08-30T01:36:44.921Z,7.38
2022-08-30T01:39:15.672Z,6.97
2022-08-30T01:41:43.849Z,6.45
2022-08-30T01:44:13.016Z,7.43
2022-08-30T01:46:47.282Z,7.97
2022-08-30T01:49:27.815Z,7.05
2022-08-30T01:52:00.595Z,7.28
2022-08-30T01:54:36.557Z,6.97
2022-08-30T01:57:11.870Z,7.03
2022-08-30T01:59:41.089Z,7.32
2022-08-30T02:02:08.781Z,7.68
2022-08-30T02:04:36.916Z,7.05
2022-08-30T02:07:04.931Z,7.65
2022-08-30T02:09:32.449Z,6.95
2022-08-30T02:11:59.774Z,7.65
2022-08-30T02:14:27.914Z,7.38
2022-08-30T02:16:55.244Z,7.35
2022-08-30T02:19:22.655Z,7.18
2022-08-30T02:21:50.542Z,7.82
2022-08-30T02:24:17.882Z,7.38
2022-08-30T02:26:45.147Z,7.55
2022-08-30T02:29:12.566Z,7.22
2022-08-30T02:31:39.941Z,7.03
2022-08-30T02:34:08.044Z,7.57
2022-08-30T02:36:35.412Z,7.50
2022-08-30T02:39:03.533Z,6.88
2022-08-30T02:41:31.117Z,7.30
2022-08-30T02:44:00.469Z,7.68
2022-08-30T02:46:28.274Z,7.90
2022-08-30T02:49:13.060Z,7.65
2022-08-30T02:51:48.444Z,8.23
2022-08-30T02:54:20.070Z,9.07
2022-08-30T02:56:48.658Z,7.70
2022-08-30T02:59:17.409Z,7.68
2022-08-30T03:01:45.003Z,7.93
2022-08-30T03:04:12.315Z,7.68
2022-08-30T03:06:39.553Z,7.60
2022-08-30T03:09:06.878Z,7.32
2022-08-30T03:11:34.790Z,7.20
2022-08-30T03:14:02.108Z,7.88
2022-08-30T03:16:29.471Z,8.38
2022-08-30T03:18:56.879Z,7.65
2022-08-30T03:21:24.212Z,7.90
2022-08-30T03:23:51.534Z,7.32
2022-08-30T03:26:18.955Z,7.03
2022-08-30T03:28:46.398Z,7.18
2022-08-30T03:31:13.720Z,7.20
2022-08-30T03:33:41.272Z,7.22
2022-08-30T03:36:09.446Z,8.25
2022-08-30T03:38:36.778Z,7.57
2022-08-30T03:41:06.042Z,7.72
2022-08-30T03:43:35.673Z,7.60
2022-08-30T03:46:04.143Z,8.73
2022-08-30T03:48:31.972Z,7.60
2022-08-30T03:50:59.344Z,7.53
2022-08-30T03:53:27.205Z,6.78
2022-08-30T03:55:55.449Z,7.65
2022-08-30T03:58:24.936Z,7.65
2022-08-30T04:00:52.314Z,7.72
2022-08-30T04:03:25.849Z,8.05
2022-08-30T04:05:54.479Z,8.10
2022-08-30T04:08:22.276Z,7.97
2022-08-30T04:10:50.174Z,9.57
2022-08-30T04:13:18.635Z,8.68
2022-08-30T04:15:45.977Z,8.15
2022-08-30T04:18:13.599Z,9.05
2022-08-30T04:20:41.153Z,8.40
2022-08-30T04:23:08.513Z,7.93
2022-08-30T04:25:39.441Z,7.78
2022-08-30T04:28:08.095Z,8.15
2022-08-30T04:30:40.064Z,7.65
2022-08-30T04:33:08.751Z,8.02
2022-08-30T04:35:36.258Z,8.32
2022-08-30T04:38:03.906Z,8.43
2022-08-30T04:40:31.310Z,8.00
2022-08-30T04:42:59.496Z,8.80
2022-08-30T04:45:26.838Z,8.77
2022-08-30T04:47:56.424Z,8.68
2022-08-30T04:50:24.645Z,8.02
2022-08-30T04:52:52.200Z,8.88
2022-08-30T04:55:20.475Z,8.20
2022-08-30T04:57:48.343Z,8.57
2022-08-30T05:00:15.834Z,8.57
2022-08-30T05:02:43.294Z,7.80
2022-08-30T05:05:29.359Z,8.60
2022-08-30T05:07:56.890Z,9.60
2022-08-30T05:10:24.773Z,8.57
2022-08-30T05:12:52.045Z,8.05
2022-08-30T05:15:19.688Z,10.05
2022-08-30T05:17:46.989Z,8.18
2022-08-30T05:20:14.483Z,8.95
2022-08-30T05:22:53.276Z,7.65
2022-08-30T05:25:23.766Z,7.97
2022-08-30T05:27:52.473Z,7.78
2022-08-30T05:30:20.838Z,10.38
2022-08-30T05:32:48.205Z,8.65
2022-08-30T05:35:17.213Z,8.27
2022-08-30T05:37:45.099Z,7.57
2022-08-30T05:40:13.452Z,8.07
2022-08-30T05:42:41.605Z,7.32
2022-08-30T05:45:10.371Z,8.70
2022-08-30T05:47:38.606Z,6.90
2022-08-30T05:50:09.749Z,8.10
2022-08-30T05:52:39.366Z,6.73
2022-08-30T05:55:07.922Z,7.15
2022-08-30T05:57:37.666Z,7.80
2022-08-30T06:00:12.280Z,6.88
2022-08-30T06:02:40.692Z,7.72
2022-08-30T06:05:09.522Z,7.57
2022-08-30T06:07:42.144Z,7.32
2022-08-30T06:10:09.812Z,6.53
2022-08-30T06:12:37.213Z,6.63
2022-08-30T06:15:04.906Z,6.40
2022-08-30T06:17:32.437Z,7.03
2022-08-30T06:19:59.782Z,6.20
2022-08-30T06:22:27.297Z,6.35
2022-08-30T06:24:57.297Z,6.68
2022-08-30T06:27:25.115Z,7.18
2022-08-30T06:29:53.479Z,7.43
2022-08-30T06:32:20.761Z,6.43
2022-08-30T06:34:48.475Z,7.70
2022-08-30T06:37:29.183Z,7.50
2022-08-30T06:39:58.868Z,7.63
2022-08-30T06:42:31.972Z,6.65
2022-08-30T06:45:01.364Z,7.47
2022-08-30T06:47:29.835Z,8.35
2022-08-30T06:49:58.751Z,8.80
2022-08-30T06:52:26.206Z,8.45
2022-08-30T06:54:55.593Z,9.45
2022-08-30T06:57:22.924Z,10.07
2022-08-30T06:59:53.092Z,10.32
2022-08-30T07:02:22.985Z,9.38
2022-08-30T07:04:50.530Z,9.82
2022-08-30T07:07:17.949Z,9.77
2022-08-30T07:09:45.346Z,9.68
2022-08-30T07:12:14.319Z,9.45
2022-08-30T07:14:43.208Z,9.30
2022-08-30T07:17:32.619Z,9.27
2022-08-30T07:20:02.954Z,9.20
2022-08-30T07:22:30.367Z,9.38
2022-08-30T07:24:57.907Z,8.95
2022-08-30T07:27:25.410Z,10.55
2022-08-30T07:29:52.775Z,9.88
2022-08-30T07:32:20.259Z,9.65
2022-08-30T07:34:47.655Z,9.40
2022-08-30T07:37:21.425Z,9.63
2022-08-30T07:39:48.972Z,9.23
2022-08-30T07:42:16.861Z,9.45
2022-08-30T07:44:44.821Z,9.07
2022-08-30T07:47:12.310Z,9.02
2022-08-30T07:49:40.165Z,8.88
2022-08-30T07:52:07.990Z,8.50
2022-08-30T07:54:35.436Z,9.38
2022-08-30T07:57:02.860Z,8.82
2022-08-30T07:59:32.985Z,10.27
2022-08-30T08:02:03.230Z,9.07
2022-08-30T08:04:30.653Z,10.27
2022-08-30T08:06:58.450Z,9.82
2022-08-30T08:09:25.868Z,10.07
2022-08-30T08:11:53.111Z,10.48
2022-08-30T08:14:22.139Z,10.65
2022-08-30T08:16:49.645Z,9.88
2022-08-30T08:19:17.011Z,11.23
2022-08-30T08:21:44.386Z,9.38
2022-08-30T08:24:12.338Z,9.00
2022-08-30T08:26:45.278Z,9.73
2022-08-30T08:29:12.773Z,9.82
2022-08-30T08:31:41.556Z,9.20
2022-08-30T08:34:09.253Z,9.73
2022-08-30T08:36:37.398Z,9.57
2022-08-30T08:39:06.916Z,8.88
2022-08-30T08:41:50.260Z,9.02
2022-08-30T08:44:38.373Z,10.00
2022-08-30T08:47:06.819Z,9.73
2022-08-30T08:49:36.685Z,9.48
2022-08-30T08:52:25.645Z,9.60
2022-08-30T08:54:59.121Z,8.95
2022-08-30T08:57:33.555Z,9.20
2022-08-30T09:00:01.120Z,8.85
2022-08-30T09:02:38.125Z,8.70
2022-08-30T09:05:06.686Z,9.30
2022-08-30T09:07:43.096Z,9.35
2022-08-30T09:10:10.749Z,8.60
2022-08-30T09:12:41.807Z,8.57
2022-08-30T09:15:28.486Z,7.97
2022-08-30T09:18:02.440Z,8.55
2022-08-30T09:20:41.608Z,8.07
2022-08-30T09:23:28.722Z,8.48
2022-08-30T09:26:06.191Z,8.32
2022-08-30T09:28:44.678Z,8.73
2022-08-30T09:31:24.576Z,7.80
2022-08-30T09:34:08.360Z,8.18
2022-08-30T09:36:47.023Z,8.68
2022-08-30T09:39:37.501Z,8.00
2022-08-30T09:42:20.967Z,7.32
2022-08-30T09:44:48.401Z,8.02
2022-08-30T09:47:29.666Z,7.70
2022-08-30T09:50:15.135Z,8.80
2022-08-30T09:53:15.274Z,8.55
2022-08-30T09:55:57.061Z,8.43
2022-08-30T09:58:44.055Z,8.27
2022-08-30T10:01:23.283Z,8.00
2022-08-30T10:03:59.800Z,7.43
2022-08-30T10:06:51.092Z,7.47
2022-08-30T10:09:30.552Z,7.85
2022-08-30T10:12:21.122Z,7.95
2022-08-30T10:15:30.294Z,8.55
2022-08-30T10:18:09.236Z,8.45
2022-08-30T10:20:59.999Z,8.15
2022-08-30T10:23:36.350Z,8.48
2022-08-30T10:26:19.328Z,8.85
2022-08-30T10:29:02.724Z,8.00
2022-08-30T10:31:40.635Z,7.93
2022-08-30T10:34:24.178Z,7.70
2022-08-30T10:37:03.205Z,7.88
2022-08-30T10:39:36.400Z,7.80
2022-08-30T10:42:10.537Z,7.47
2022-08-30T10:44:41.446Z,7.95
2022-08-30T10:47:40.450Z,7.80
2022-08-30T10:50:21.731Z,8.25
2022-08-30T10:52:58.044Z,9.07
2022-08-30T10:55:39.335Z,7.93
2022-08-30T10:58:07.913Z,8.10
2022-08-30T11:00:41.266Z,8.15
2022-08-30T11:03:27.217Z,7.72
2022-08-30T11:06:06.811Z,7.35
2022-08-30T11:08:52.368Z,7.60
2022-08-30T11:11:47.188Z,7.80
2022-08-30T11:14:18.232Z,7.60
2022-08-30T11:16:51.729Z,8.18
2022-08-30T11:19:45.633Z,8.40
2022-08-30T11:25:57.467Z,7.95
2022-08-30T11:28:37.577Z,9.07
2022-08-30T11:31:05.476Z,7.55
2022-08-30T11:33:47.895Z,7.90
2022-08-30T11:36:45.915Z,9.20
2022-08-30T11:39:49.394Z,7.43
2022-08-30T11:42:30.435Z,7.50
2022-08-30T11:45:25.485Z,7.75
2022-08-30T11:47:59.944Z,8.45
2022-08-30T11:50:48.572Z,7.93
2022-08-30T11:53:21.824Z,7.97
2022-08-30T11:56:23.774Z,7.57
2022-08-30T11:59:01.531Z,7.65
2022-08-30T12:01:50.752Z,7.95
2022-08-30T12:04:22.257Z,8.63
2022-08-30T12:06:57.215Z,10.80
2022-08-30T12:09:24.364Z,8.10
2022-08-30T12:11:56.177Z,6.80
2022-08-30T12:14:44.802Z,6.80
2022-08-30T12:17:45.606Z,7.13
2022-08-30T12:20:26.312Z,7.67
2022-08-30T12:22:55.220Z,7.78
2022-08-30T12:25:34.060Z,7.95
2022-08-30T12:28:14.176Z,7.95
2022-08-30T12:30:42.314Z,7.38
2022-08-30T12:33:23.079Z,7.25
2022-08-30T12:35:59.457Z,7.15
2022-08-30T12:38:28.409Z,7.47
2022-08-30T12:41:01.054Z,7.60
2022-08-30T12:43:40.492Z,7.85
2022-08-30T12:46:15.166Z,7.88
2022-08-30T12:48:44.083Z,7.43
2022-08-30T12:51:34.308Z,10.38
2022-08-30T12:54:20.596Z,7.50
2022-08-30T12:56:54.256Z,8.35
2022-08-30T13:00:01.640Z,7.65
2022-08-30T13:02:53.934Z,7.28
2022-08-30T13:05:45.520Z,7.60
2022-08-30T13:08:19.694Z,7.25
2022-08-30T13:10:59.486Z,7.03
2022-08-30T13:13:33.468Z,7.72
2022-08-30T13:16:18.808Z,7.20
2022-08-30T13:19:06.850Z,7.13
2022-08-30T13:21:35.491Z,7.47
2022-08-30T13:24:06.894Z,7.47
2022-08-30T13:26:37.163Z,7.68
2022-08-30T13:29:08.685Z,7.18
2022-08-30T13:31:38.075Z,7.20
2022-08-30T13:34:05.431Z,7.00
2022-08-30T13:36:36.242Z,7.07
2022-08-30T13:39:05.525Z,7.30
2022-08-30T13:41:34.041Z,7.03
2022-08-30T13:44:20.225Z,7.20
2022-08-30T13:46:54.674Z,6.78
2022-08-30T13:52:21.495Z,7.00
2022-08-30T13:54:54.057Z,6.97
2022-08-30T14:00:19.697Z,7.38
2022-08-30T14:02:54.876Z,6.70
2022-08-30T14:05:48.981Z,6.80
2022-08-30T14:11:09.373Z,7.22
2022-08-30T14:13:36.914Z,6.73
2022-08-30T14:18:55.757Z,7.80
2022-08-30T14:21:24.943Z,7.30
2022-08-30T14:23:53.872Z,6.83
2022-08-30T14:26:25.048Z,7.80
2022-08-30T14:28:53.509Z,7.75
2022-08-30T14:31:21.229Z,7.72
2022-08-30T14:33:48.745Z,7.63
2022-08-30T14:36:17.252Z,7.60
2022-08-30T14:38:45.001Z,7.40
2022-08-30T14:41:12.458Z,7.40
2022-08-30T14:43:43.427Z,7.10
2022-08-30T14:46:10.873Z,7.40
2022-08-30T14:48:39.150Z,7.60
2022-08-30T14:51:18.567Z,8.00
2022-08-30T14:53:46.913Z,7.53
2022-08-30T14:56:19.574Z,7.63
2022-08-30T14:58:52.249Z,7.50
2022-08-30T15:01:20.405Z,7.18
2022-08-30T15:03:47.857Z,7.75
2022-08-30T15:06:15.972Z,7.18
2022-08-30T15:08:43.452Z,7.32
2022-08-30T15:11:17.566Z,7.00
2022-08-30T15:13:45.308Z,6.82
2022-08-30T15:16:14.779Z,6.70
2022-08-30T15:18:42.218Z,6.93
2022-08-30T15:21:10.643Z,6.50
2022-08-30T15:23:39.492Z,7.00
2022-08-30T15:26:09.471Z,6.97
2022-08-30T15:28:37.306Z,7.13
2022-08-30T15:31:08.650Z,6.20
2022-08-30T15:33:38.444Z,6.57
2022-08-30T15:36:07.284Z,6.90
2022-08-30T15:38:35.889Z,7.05
2022-08-30T15:41:07.236Z,6.43
2022-08-30T15:43:35.265Z,6.70
2022-08-30T15:46:21.093Z,6.43
2022-08-30T15:48:52.127Z,6.32
2022-08-30T15:51:20.327Z,6.30
2022-08-30T15:53:48.967Z,6.25
2022-08-30T15:56:18.789Z,6.43
2022-08-30T15:58:47.170Z,6.60
2022-08-30T16:01:16.823Z,6.10
2022-08-30T16:03:47.334Z,6.22
2022-08-30T16:06:20.323Z,6.40
2022-08-30T16:08:49.217Z,6.13
2022-08-30T16:11:21.471Z,6.45
2022-08-30T16:13:50.784Z,6.75
2022-08-30T16:16:20.906Z,6.75
2022-08-30T16:18:53.598Z,6.32
2022-08-30T16:21:25.147Z,6.30
2022-08-30T16:23:55.877Z,6.50
2022-08-30T16:26:23.584Z,6.10
2022-08-30T16:28:52.017Z,5.93
2022-08-30T16:31:21.667Z,6.47
2022-08-30T16:33:52.655Z,5.97
2022-08-30T16:36:21.648Z,6.25
2022-08-30T16:38:49.864Z,6.28
2022-08-30T16:41:22.487Z,6.50
2022-08-30T16:43:53.187Z,6.25
2022-08-30T16:46:23.344Z,6.25
2022-08-30T16:49:01.497Z,6.30
2022-08-30T16:51:30.629Z,5.95
2022-08-30T16:54:00.268Z,5.95
2022-08-30T16:56:29.762Z,6.05
2022-08-30T16:59:02.021Z,5.93
2022-08-30T17:01:37.534Z,6.68
2022-08-30T17:04:08.294Z,6.10
2022-08-30T17:06:36.271Z,5.80
2022-08-30T17:09:05.762Z,5.65
2022-08-30T17:11:35.221Z,6.10
2022-08-30T17:14:05.764Z,5.55
2022-08-30T17:16:35.382Z,5.55
2022-08-30T17:19:06.653Z,5.90
2022-08-30T17:21:34.799Z,5.72
2022-08-30T17:24:03.949Z,5.78
2022-08-30T17:26:36.101Z,6.20
2022-08-30T17:29:04.859Z,6.00
2022-08-30T17:31:32.689Z,6.13
2022-08-30T17:34:03.747Z,6.65
2022-08-30T17:36:35.567Z,6.80
2022-08-30T17:39:11.033Z,6.60
2022-08-30T17:41:43.342Z,6.63
2022-08-30T17:44:17.957Z,7.88
2022-08-30T17:46:45.826Z,6.97
2022-08-30T17:49:13.240Z,6.85
2022-08-30T17:51:44.456Z,7.28
2022-08-30T17:54:13.120Z,6.55
2022-08-30T17:56:41.732Z,7.50
2022-08-30T17:59:11.175Z,6.80
2022-08-30T18:01:38.867Z,7.10
2022-08-30T18:04:08.050Z,6.70
2022-08-30T18:06:36.188Z,6.95
2022-08-30T18:09:08.342Z,7.10
2022-08-30T18:11:39.779Z,7.50
2022-08-30T18:14:10.870Z,6.95
2022-08-30T18:19:29.322Z,6.70
2022-08-30T18:21:56.853Z,7.10
2022-08-30T18:24:24.650Z,7.07
2022-08-30T18:26:54.811Z,6.88
2022-08-30T18:29:29.272Z,7.53
2022-08-30T18:32:02.424Z,7.22
2022-08-30T18:34:30.431Z,7.47
2022-08-30T18:36:57.904Z,7.35
2022-08-30T18:39:25.621Z,7.30
2022-08-30T18:41:55.676Z,7.90
2022-08-30T18:44:28.390Z,8.70
2022-08-30T18:46:57.562Z,9.15
2022-08-30T18:49:28.582Z,7.97
2022-08-30T18:51:55.993Z,8.07
2022-08-30T18:54:23.937Z,7.50
2022-08-30T18:56:51.849Z,7.85
2022-08-30T18:59:20.083Z,7.80
2022-08-30T19:01:48.687Z,8.30
2022-08-30T19:04:29.544Z,8.13
2022-08-30T19:07:03.703Z,7.05
2022-08-30T19:09:31.067Z,7.10
2022-08-30T19:11:58.515Z,7.57
2022-08-30T19:14:28.027Z,7.53
2022-08-30T19:16:56.419Z,7.40
2022-08-30T19:19:24.098Z,6.95
2022-08-30T19:21:52.129Z,7.43
2022-08-30T19:24:20.842Z,7.50
2022-08-30T19:26:48.782Z,7.47
2022-08-30T19:29:16.383Z,6.93
2022-08-30T19:31:44.114Z,7.00
2022-08-30T19:34:11.992Z,7.22
2022-08-30T19:36:39.461Z,7.30
2022-08-30T19:39:07.702Z,6.93
2022-08-30T19:41:35.399Z,7.82
2022-08-30T19:44:04.636Z,7.78
2022-08-30T19:46:32.743Z,7.25
2022-08-30T19:49:01.230Z,6.95
2022-08-30T19:51:28.807Z,6.90
2022-08-30T19:53:59.353Z,7.35
2022-08-30T19:56:26.759Z,7.03
2022-08-30T19:58:54.317Z,7.00
2022-08-30T20:01:28.778Z,7.13
2022-08-30T20:04:02.376Z,6.95
2022-08-30T20:06:31.364Z,7.10
2022-08-30T20:09:01.961Z,7.03
2022-08-30T20:11:29.602Z,7.15
2022-08-30T20:13:57.906Z,6.82
2022-08-30T20:16:29.990Z,7.38
2022-08-30T20:19:08.617Z,7.10
2022-08-30T20:21:36.737Z,7.03
2022-08-30T20:24:09.890Z,10.13
2022-08-30T20:24:27.140Z,7.50
2022-08-30T20:26:39.088Z,7.43
2022-08-30T20:29:07.588Z,7.90
2022-08-30T20:31:35.739Z,7.80
2022-08-30T20:34:05.029Z,7.70
2022-08-30T20:36:34.184Z,8.35
2022-08-30T20:39:02.359Z,8.45
2022-08-30T20:41:30.832Z,6.82
2022-08-30T20:43:58.434Z,6.38
2022-08-30T20:46:27.741Z,7.40
2022-08-30T20:49:01.691Z,7.38
2022-08-30T20:51:29.469Z,7.32
2022-08-30T20:53:57.632Z,6.53
2022-08-30T20:56:27.974Z,7.80
2022-08-30T20:58:55.847Z,9.00
2022-08-30T21:01:23.637Z,6.97
2022-08-30T21:03:51.065Z,6.82
2022-08-30T21:06:18.576Z,6.85
2022-08-30T21:08:45.900Z,6.65
2022-08-30T21:11:13.432Z,7.10
2022-08-30T21:13:40.933Z,6.53
2022-08-30T21:16:08.351Z,6.90
2022-08-30T21:18:39.586Z,6.88
2022-08-30T21:21:14.746Z,6.88
2022-08-30T21:23:43.023Z,7.15
2022-08-30T21:26:10.994Z,7.43
2022-08-30T21:28:39.118Z,6.75
2022-08-30T21:31:15.809Z,7.57
2022-08-30T21:33:43.884Z,7.38
2022-08-30T21:36:30.110Z,7.50
2022-08-30T21:39:00.814Z,7.05
2022-08-30T21:41:29.708Z,7.88
2022-08-30T21:43:58.691Z,7.18
2022-08-30T21:46:27.810Z,7.35
2022-08-30T21:48:58.337Z,7.50
2022-08-30T21:51:25.680Z,7.20
2022-08-30T21:53:53.037Z,6.82
2022-08-30T21:56:22.242Z,6.90
2022-08-30T21:58:50.073Z,7.50
2022-08-30T22:01:24.203Z,6.80
2022-08-30T22:03:53.847Z,7.90
2022-08-30T22:06:21.823Z,7.57
2022-08-30T22:08:52.695Z,7.70
2022-08-30T22:11:25.540Z,7.18
2022-08-30T22:13:54.667Z,7.75
2022-08-30T22:16:23.390Z,7.80
2022-08-30T22:18:51.630Z,7.88
2022-08-30T22:21:23.089Z,8.73
2022-08-30T22:23:51.435Z,9.30
2022-08-30T22:26:20.388Z,8.85
2022-08-30T22:28:48.139Z,7.47
2022-08-30T22:31:16.488Z,8.02
2022-08-30T22:33:45.181Z,7.43
2022-08-30T22:36:22.037Z,8.77
2022-08-30T22:38:52.852Z,8.25
2022-08-30T22:41:26.633Z,8.43
2022-08-30T22:43:59.153Z,8.20
2022-08-30T22:46:33.954Z,7.53
2022-08-30T22:49:04.813Z,8.20
2022-08-30T22:51:33.406Z,8.25
2022-08-30T22:54:01.438Z,8.15
2022-08-30T22:56:29.392Z,8.02
2022-08-30T22:58:58.404Z,7.80
2022-08-30T23:01:31.784Z,7.70
2022-08-30T23:04:01.476Z,7.97
2022-08-30T23:06:30.098Z,7.75
2022-08-30T23:08:58.168Z,7.45
2022-08-30T23:11:26.183Z,7.93
2022-08-30T23:13:56.563Z,7.82
2022-08-30T23:16:24.116Z,7.63
2022-08-30T23:18:51.933Z,7.90
2022-08-30T23:21:27.309Z,7.47
2022-08-30T23:24:15.370Z,8.07
2022-08-30T23:27:04.181Z,7.22
2022-08-30T23:29:50.427Z,7.78
2022-08-30T23:32:37.440Z,7.85
2022-08-30T23:35:29.338Z,7.88
2022-08-30T23:38:22.184Z,7.60
2022-08-30T23:41:08.329Z,8.38
2022-08-30T23:43:54.900Z,8.45
2022-08-30T23:46:41.316Z,7.35
2022-08-30T23:49:27.233Z,7.88
2022-08-30T23:52:13.029Z,7.68
2022-08-30T23:54:58.769Z,7.50
2022-08-30T23:57:45.851Z,7.93
